| time (UTC) | temp C | wind direction | speed KPH | gust KPH | rain 1hr cm | rain 24hr cm | rain mn cm | humidity % | barometer mb |
| 20260510143044 | 12 | 69 | 8.0 | 16.1 | 0.00 | 0.86 | 0.00 | 47 | 1016.8 |
| 20260510141550 | 11 | 349 | 4.8 | 16.1 | 0.00 | 0.86 | 0.00 | 50 | 1016.8 |
| 20260510140046 | 11 | 314 | 1.6 | 12.9 | 0.00 | 0.86 | 0.00 | 50 | 1016.8 |
| 20260510134549 | 10 | 30 | 4.8 | 14.5 | 0.00 | 0.86 | 0.00 | 51 | 1016.9 |
| 20260510133045 | 10 | 348 | 4.8 | 19.3 | 0.00 | 0.86 | 0.00 | 53 | 1016.7 |
| 20260510131545 | 10 | 44 | 8.0 | 17.7 | 0.00 | 0.86 | 0.00 | 53 | 1016.4 |
| 20260510130049 | 10 | 86 | 6.4 | 22.5 | 0.00 | 0.86 | 0.00 | 56 | 1016.0 |
| 20260510124557 | 9 | 0 | 3.2 | 14.5 | 0.00 | 0.86 | 0.00 | 62 | 1015.8 |
| 20260510123043 | 9 | 38 | 3.2 | 16.1 | 0.00 | 0.86 | 0.00 | 66 | 1015.6 |
| 20260510121545 | 8 | 22 | 6.4 | 19.3 | 0.00 | 0.86 | 0.00 | 65 | 1015.4 |
| 20260510120049 | 8 | 0 | 4.8 | 16.1 | 0.00 | 0.86 | 0.00 | 69 | 1015.2 |
| 20260510114543 | 8 | 20 | 1.6 | 16.1 | 0.00 | 0.86 | 0.00 | 71 | 1014.9 |
| 20260510113047 | 8 | 23 | 3.2 | 12.9 | 0.00 | 0.86 | 0.00 | 74 | 1014.5 |
| 20260510111551 | 8 | 5 | 0.0 | 11.3 | 0.00 | 0.86 | 0.00 | 78 | 1014.4 |
| 20260510110046 | 8 | 348 | 4.8 | 12.9 | 0.00 | 0.86 | 0.00 | 78 | 1013.9 |
| 20260510104545 | 8 | 52 | 0.0 | 16.1 | 0.00 | 0.86 | 0.00 | 80 | 1013.5 |
| 20260510103047 | 8 | 0 | 3.2 | 9.7 | 0.00 | 0.86 | 0.00 | 81 | 1013.1 |
| 20260510101550 | 8 | 350 | 3.2 | 11.3 | 0.00 | 0.86 | 0.00 | 80 | 1012.9 |
| 20260510100046 | 8 | 332 | 3.2 | 9.7 | 0.00 | 0.86 | 0.00 | 80 | 1012.6 |
| 20260510094542 | 8 | 39 | 3.2 | 9.7 | 0.00 | 0.86 | 0.00 | 80 | 1012.4 |
| 20260510093042 | 8 | 33 | 1.6 | 14.5 | 0.00 | 0.86 | 0.00 | 81 | 1012.2 |
| 20260510091541 | 8 | 352 | 1.6 | 8.0 | 0.00 | 0.86 | 0.00 | 83 | 1011.8 |
| 20260510090040 | 8 | 0 | 0.0 | 3.2 | 0.00 | 0.86 | 0.00 | 84 | 1011.6 |
| 20260510084544 | 8 | 0 | 0.0 | 0.0 | 0.00 | 0.86 | 0.00 | 85 | 1011.3 |
| 20260510083058 | 8 | 0 | 0.0 | 1.6 | 0.00 | 0.86 | 0.00 | 84 | 1011.4 |
| 20260510081543 | 9 | 0 | 0.0 | 0.0 | 0.00 | 0.86 | 0.00 | 82 | 1011.0 |
| 20260510080047 | 9 | 0 | 0.0 | 0.0 | 0.00 | 0.86 | 0.00 | 79 | 1010.9 |
| 20260510074556 | 9 | 0 | 0.0 | 4.8 | 0.00 | 0.86 | 0.00 | 78 | 1010.4 |
| 20260510073047 | 10 | 360 | 0.0 | 3.2 | 0.00 | 0.86 | 0.00 | 77 | 1010.1 |
| 20260510071543 | 10 | 0 | 0.0 | 6.4 | 0.00 | 0.86 | 0.00 | 76 | 1010.2 |
| 20260510070048 | 10 | 360 | 0.0 | 6.4 | 0.00 | 0.86 | 0.00 | 76 | 1010.1 |
| 20260510064544 | 10 | 302 | 3.2 | 12.9 | 0.00 | 0.86 | 0.00 | 75 | 1009.9 |
| 20260510063043 | 11 | 50 | 6.4 | 19.3 | 0.00 | 0.86 | 0.00 | 73 | 1009.8 |
| 20260510061548 | 11 | 47 | 4.8 | 16.1 | 0.00 | 0.86 | 0.00 | 73 | 1009.8 |
| 20260510060043 | 11 | 35 | 4.8 | 25.7 | 0.00 | 0.86 | 0.00 | 78 | 1009.9 |
| 20260510054544 | 12 | 44 | 6.4 | 14.5 | 0.00 | 0.86 | 0.00 | 89 | 1009.3 |
| 20260510053042 | 12 | 0 | 0.0 | 1.6 | 0.00 | 0.86 | 0.00 | 90 | 1008.7 |
| 20260510051547 | 12 | 0 | 0.0 | 3.2 | 0.00 | 0.86 | 0.00 | 90 | 1008.4 |
| 20260510050050 | 12 | 313 | 0.0 | 3.2 | 0.00 | 0.86 | 0.00 | 90 | 1008.3 |
| 20260510044545 | 12 | 0 | 1.6 | 8.0 | 0.00 | 0.91 | 0.00 | 90 | 1007.8 |
| 20260510043044 | 12 | 230 | 0.0 | 3.2 | 0.00 | 0.91 | 0.00 | 90 | 1007.4 |
| 20260510041544 | 12 | 0 | 0.0 | 1.6 | 0.00 | 0.91 | 0.00 | 90 | 1007.0 |
| 20260510040040 | 12 | 0 | 0.0 | 4.8 | 0.00 | 0.91 | 0.00 | 90 | 1006.9 |
| 20260510034549 | 12 | 0 | 0.0 | 3.2 | 0.00 | 0.91 | 0.91 | 91 | 1006.9 |
| 20260510033053 | 12 | 192 | 1.6 | 6.4 | 0.00 | 0.91 | 0.91 | 92 | 1006.9 |
| 20260510031543 | 12 | 0 | 0.0 | 3.2 | 0.00 | 0.91 | 0.91 | 93 | 1007.2 |
| 20260510030043 | 12 | 0 | 0.0 | 3.2 | 0.00 | 0.91 | 0.91 | 93 | 1007.1 |
| 20260510024539 | 12 | 0 | 0.0 | 3.2 | 0.00 | 0.91 | 0.91 | 93 | 1006.9 |
| 20260510023044 | 12 | 0 | 0.0 | 3.2 | 0.00 | 0.91 | 0.91 | 93 | 1006.6 |
| 20260510021543 | 12 | 171 | 1.6 | 6.4 | 0.00 | 0.91 | 0.91 | 92 | 1007.1 |
| 20260510020043 | 12 | 0 | 0.0 | 3.2 | 0.00 | 0.91 | 0.91 | 92 | 1006.5 |
| 20260510014543 | 12 | 200 | 0.0 | 3.2 | 0.00 | 0.94 | 0.91 | 91 | 1006.2 |
| 20260510013040 | 12 | 0 | 0.0 | 4.8 | 0.00 | 0.94 | 0.91 | 91 | 1006.2 |
| 20260510011545 | 12 | 0 | 0.0 | 0.0 | 0.00 | 0.94 | 0.91 | 90 | 1006.1 |
| 20260510010044 | 12 | 0 | 0.0 | 3.2 | 0.00 | 0.94 | 0.91 | 91 | 1006.1 |
| 20260510004543 | 12 | 0 | 0.0 | 0.0 | 0.00 | 0.99 | 0.91 | 90 | 1005.9 |
| 20260510003055 | 13 | 0 | 0.0 | 1.6 | 0.00 | 0.99 | 0.91 | 91 | 1006.0 |
| 20260510001539 | 13 | 0 | 0.0 | 3.2 | 0.00 | 0.99 | 0.91 | 90 | 1005.9 |
| 20260510000047 | 13 | 0 | 0.0 | 3.2 | 0.08 | 0.99 | 0.91 | 90 | 1005.9 |
| 20260509234545 | 13 | 250 | 0.0 | 3.2 | 0.30 | 1.14 | 0.91 | 90 | 1005.8 |
| 20260509233043 | 13 | 234 | 0.0 | 3.2 | 0.86 | 1.14 | 0.91 | 89 | 1005.8 |
| 20260509231542 | 13 | 275 | 1.6 | 11.3 | 0.86 | 1.14 | 0.91 | 87 | 1005.6 |
| 20260509230051 | 14 | 346 | 3.2 | 4.8 | 0.79 | 1.07 | 0.84 | 83 | 1006.3 |
| 20260509224553 | 15 | 246 | 3.2 | 17.7 | 0.56 | 1.02 | 0.61 | 76 | 1005.6 |
| 20260509223048 | 20 | 306 | 3.2 | 12.9 | 0.00 | 0.46 | 0.05 | 51 | 1004.7 |
| 20260509221541 | 21 | 239 | 3.2 | 9.7 | 0.00 | 0.46 | 0.05 | 50 | 1003.0 |
| 20260509220041 | 21 | 167 | 3.2 | 12.9 | 0.00 | 0.46 | 0.05 | 50 | 1003.3 |
| 20260509214544 | 21 | 221 | 4.8 | 11.3 | 0.00 | 0.51 | 0.05 | 49 | 1003.2 |
| 20260509213043 | 21 | 252 | 3.2 | 17.7 | 0.00 | 0.51 | 0.05 | 49 | 1003.1 |
| 20260509211540 | 21 | 210 | 6.4 | 14.5 | 0.00 | 0.51 | 0.05 | 50 | 1002.9 |
| 20260509210049 | 21 | 225 | 3.2 | 20.9 | 0.00 | 0.51 | 0.05 | 51 | 1003.1 |
| 20260509204545 | 21 | 214 | 3.2 | 17.7 | 0.00 | 0.51 | 0.05 | 53 | 1003.5 |
| 20260509203053 | 21 | 259 | 6.4 | 19.3 | 0.00 | 0.51 | 0.05 | 52 | 1003.7 |
| 20260509201543 | 21 | 308 | 3.2 | 12.9 | 0.00 | 0.51 | 0.05 | 53 | 1004.0 |
| 20260509200048 | 20 | 248 | 4.8 | 9.7 | 0.00 | 0.51 | 0.05 | 54 | 1004.3 |
| 20260509194546 | 20 | 268 | 4.8 | 16.1 | 0.00 | 0.51 | 0.05 | 53 | 1004.4 |
| 20260509193045 | 20 | 237 | 4.8 | 19.3 | 0.00 | 0.51 | 0.05 | 54 | 1004.6 |
| 20260509191547 | 20 | 213 | 4.8 | 17.7 | 0.00 | 0.51 | 0.05 | 54 | 1004.8 |
| 20260509190045 | 20 | 149 | 1.6 | 12.9 | 0.00 | 0.51 | 0.05 | 56 | 1005.0 |
| 20260509184547 | 20 | 238 | 6.4 | 19.3 | 0.00 | 0.51 | 0.05 | 55 | 1005.1 |
| 20260509183047 | 20 | 231 | 3.2 | 9.7 | 0.00 | 0.51 | 0.05 | 56 | 1005.3 |
| 20260509181605 | 20 | 236 | 3.2 | 11.3 | 0.00 | 0.51 | 0.05 | 55 | 1005.4 |
| 20260509180110 | 20 | 167 | 3.2 | 16.1 | 0.00 | 0.51 | 0.05 | 55 | 1005.2 |
| 20260509174543 | 19 | 195 | 3.2 | 12.9 | 0.00 | 0.51 | 0.05 | 59 | 1005.2 |
| 20260509173047 | 19 | 234 | 3.2 | 19.3 | 0.00 | 0.51 | 0.05 | 58 | 1005.7 |
| 20260509171552 | 19 | 248 | 4.8 | 12.9 | 0.00 | 0.51 | 0.05 | 60 | 1005.7 |
| 20260509170052 | 18 | 297 | 3.2 | 14.5 | 0.00 | 0.51 | 0.05 | 62 | 1005.6 |
| 20260509164543 | 18 | 257 | 1.6 | 9.7 | 0.00 | 0.51 | 0.05 | 63 | 1005.7 |
| 20260509163044 | 17 | 266 | 3.2 | 11.3 | 0.00 | 0.51 | 0.05 | 66 | 1005.7 |
| 20260509161552 | 17 | 257 | 1.6 | 8.0 | 0.00 | 0.51 | 0.05 | 69 | 1005.7 |
| 20260509160039 | 16 | 231 | 1.6 | 8.0 | 0.00 | 0.51 | 0.05 | 70 | 1006.0 |
| 20260509154542 | 16 | 311 | 3.2 | 9.7 | 0.00 | 0.51 | 0.05 | 72 | 1006.2 |
| 20260509153047 | 16 | 0 | 1.6 | 9.7 | 0.00 | 0.51 | 0.05 | 72 | 1006.2 |
| 20260509151549 | 16 | 352 | 3.2 | 11.3 | 0.00 | 0.51 | 0.05 | 75 | 1006.2 |
| 20260509150042 | 16 | 0 | 4.8 | 11.3 | 0.00 | 0.51 | 0.05 | 77 | 1006.0 |
| 20260509144544 | 15 | 0 | 1.6 | 9.7 | 0.00 | 0.51 | 0.05 | 84 | 1006.0 |